sensor_id;sensor_type;location;lat;lon;timestamp;P1;durP1;ratioP1;P2;durP2;ratioP2
3271;SDS011;1648;50.022;8.424;2023-07-08T00:03:07;9.40;;;5.63;;
3271;SDS011;1648;50.022;8.424;2023-07-08T00:18:11;8.67;;;5.83;;
3271;SDS011;1648;50.022;8.424;2023-07-08T00:33:15;8.20;;;5.50;;
3271;SDS011;1648;50.022;8.424;2023-07-08T00:48:19;10.63;;;5.87;;
3271;SDS011;1648;50.022;8.424;2023-07-08T01:03:25;10.63;;;5.87;;
3271;SDS011;1648;50.022;8.424;2023-07-08T01:18:30;8.10;;;5.30;;
3271;SDS011;1648;50.022;8.424;2023-07-08T01:33:33;10.10;;;6.60;;
3271;SDS011;1648;50.022;8.424;2023-07-08T01:48:36;8.77;;;4.90;;
3271;SDS011;1648;50.022;8.424;2023-07-08T02:03:41;8.80;;;5.40;;
3271;SDS011;1648;50.022;8.424;2023-07-08T02:18:47;14.03;;;6.47;;
3271;SDS011;1648;50.022;8.424;2023-07-08T02:33:50;8.37;;;5.73;;
3271;SDS011;1648;50.022;8.424;2023-07-08T02:48:53;9.00;;;4.83;;
3271;SDS011;1648;50.022;8.424;2023-07-08T03:03:56;8.23;;;5.20;;
3271;SDS011;1648;50.022;8.424;2023-07-08T03:19:00;10.23;;;5.43;;
3271;SDS011;1648;50.022;8.424;2023-07-08T03:34:04;9.30;;;6.57;;
3271;SDS011;1648;50.022;8.424;2023-07-08T03:49:07;10.27;;;6.20;;
3271;SDS011;1648;50.022;8.424;2023-07-08T04:04:12;10.70;;;5.87;;
3271;SDS011;1648;50.022;8.424;2023-07-08T04:19:16;8.83;;;5.47;;
3271;SDS011;1648;50.022;8.424;2023-07-08T04:34:19;9.90;;;6.60;;
3271;SDS011;1648;50.022;8.424;2023-07-08T04:49:22;7.40;;;5.20;;
3271;SDS011;1648;50.022;8.424;2023-07-08T05:04:25;10.00;;;4.90;;
3271;SDS011;1648;50.022;8.424;2023-07-08T05:19:29;8.23;;;5.43;;
3271;SDS011;1648;50.022;8.424;2023-07-08T05:34:32;7.23;;;5.23;;
3271;SDS011;1648;50.022;8.424;2023-07-08T05:49:35;11.93;;;5.23;;
3271;SDS011;1648;50.022;8.424;2023-07-08T06:04:38;8.63;;;5.20;;
3271;SDS011;1648;50.022;8.424;2023-07-08T06:19:41;7.30;;;4.70;;
3271;SDS011;1648;50.022;8.424;2023-07-08T06:34:44;7.60;;;5.17;;
3271;SDS011;1648;50.022;8.424;2023-07-08T06:49:48;9.50;;;5.30;;
3271;SDS011;1648;50.022;8.424;2023-07-08T07:04:52;11.57;;;6.37;;
3271;SDS011;1648;50.022;8.424;2023-07-08T07:19:55;10.57;;;5.17;;
3271;SDS011;1648;50.022;8.424;2023-07-08T07:34:58;8.90;;;4.80;;
3271;SDS011;1648;50.022;8.424;2023-07-08T07:50:01;7.40;;;4.70;;
3271;SDS011;1648;50.022;8.424;2023-07-08T08:05:04;6.57;;;5.20;;
3271;SDS011;1648;50.022;8.424;2023-07-08T08:20:08;8.10;;;5.70;;
3271;SDS011;1648;50.022;8.424;2023-07-08T08:35:11;8.20;;;5.93;;
3271;SDS011;1648;50.022;8.424;2023-07-08T08:50:20;7.10;;;5.80;;
3271;SDS011;1648;50.022;8.424;2023-07-08T09:05:32;11.77;;;6.70;;
3271;SDS011;1648;50.022;8.424;2023-07-08T09:20:35;9.13;;;6.90;;
3271;SDS011;1648;50.022;8.424;2023-07-08T09:35:40;10.17;;;7.10;;
3271;SDS011;1648;50.022;8.424;2023-07-08T09:50:46;11.17;;;6.17;;
3271;SDS011;1648;50.022;8.424;2023-07-08T10:05:51;7.73;;;6.23;;
3271;SDS011;1648;50.022;8.424;2023-07-08T10:20:57;13.00;;;6.60;;
3271;SDS011;1648;50.022;8.424;2023-07-08T10:36:08;9.57;;;7.70;;
3271;SDS011;1648;50.022;8.424;2023-07-08T10:51:22;13.47;;;6.77;;
3271;SDS011;1648;50.022;8.424;2023-07-08T11:06:29;14.80;;;10.68;;
3271;SDS011;1648;50.022;8.424;2023-07-08T11:21:41;11.13;;;7.85;;
3271;SDS011;1648;50.022;8.424;2023-07-08T11:36:49;11.02;;;7.72;;
3271;SDS011;1648;50.022;8.424;2023-07-08T11:51:53;13.43;;;7.37;;
3271;SDS011;1648;50.022;8.424;2023-07-08T12:07:15;12.60;;;6.60;;
3271;SDS011;1648;50.022;8.424;2023-07-08T12:22:20;10.00;;;6.60;;
3271;SDS011;1648;50.022;8.424;2023-07-08T12:37:23;14.77;;;9.43;;
3271;SDS011;1648;50.022;8.424;2023-07-08T12:52:26;6.70;;;5.97;;
3271;SDS011;1648;50.022;8.424;2023-07-08T13:07:32;8.47;;;6.23;;
3271;SDS011;1648;50.022;8.424;2023-07-08T13:22:37;12.37;;;5.37;;
3271;SDS011;1648;50.022;8.424;2023-07-08T13:37:40;10.23;;;5.87;;
3271;SDS011;1648;50.022;8.424;2023-07-08T13:52:44;9.20;;;5.40;;
3271;SDS011;1648;50.022;8.424;2023-07-08T14:07:47;8.03;;;4.80;;
3271;SDS011;1648;50.022;8.424;2023-07-08T14:22:50;7.23;;;4.90;;
3271;SDS011;1648;50.022;8.424;2023-07-08T14:37:55;10.30;;;4.73;;
3271;SDS011;1648;50.022;8.424;2023-07-08T14:52:58;9.70;;;5.20;;
3271;SDS011;1648;50.022;8.424;2023-07-08T15:08:02;8.60;;;4.70;;
3271;SDS011;1648;50.022;8.424;2023-07-08T15:23:05;6.70;;;4.90;;
3271;SDS011;1648;50.022;8.424;2023-07-08T15:38:08;9.97;;;5.73;;
3271;SDS011;1648;50.022;8.424;2023-07-08T15:53:13;9.17;;;5.63;;
3271;SDS011;1648;50.022;8.424;2023-07-08T16:08:17;7.90;;;5.90;;
3271;SDS011;1648;50.022;8.424;2023-07-08T16:23:20;8.27;;;5.50;;
3271;SDS011;1648;50.022;8.424;2023-07-08T16:38:23;12.60;;;5.60;;
3271;SDS011;1648;50.022;8.424;2023-07-08T16:53:26;8.03;;;5.20;;
3271;SDS011;1648;50.022;8.424;2023-07-08T17:08:30;10.03;;;6.27;;
3271;SDS011;1648;50.022;8.424;2023-07-08T17:23:33;11.07;;;5.03;;
3271;SDS011;1648;50.022;8.424;2023-07-08T17:38:41;11.97;;;4.27;;
3271;SDS011;1648;50.022;8.424;2023-07-08T17:53:46;10.00;;;3.33;;
3271;SDS011;1648;50.022;8.424;2023-07-08T18:08:49;5.43;;;2.70;;
3271;SDS011;1648;50.022;8.424;2023-07-08T18:23:53;5.27;;;2.77;;
3271;SDS011;1648;50.022;8.424;2023-07-08T18:38:56;4.07;;;2.60;;
3271;SDS011;1648;50.022;8.424;2023-07-08T18:53:59;5.70;;;2.23;;
3271;SDS011;1648;50.022;8.424;2023-07-08T19:09:02;4.13;;;2.23;;
3271;SDS011;1648;50.022;8.424;2023-07-08T19:24:07;6.47;;;2.50;;
3271;SDS011;1648;50.022;8.424;2023-07-08T19:39:20;8.43;;;2.73;;
3271;SDS011;1648;50.022;8.424;2023-07-08T19:54:23;8.20;;;3.77;;
3271;SDS011;1648;50.022;8.424;2023-07-08T20:09:26;6.03;;;3.53;;
3271;SDS011;1648;50.022;8.424;2023-07-08T20:24:30;6.67;;;4.00;;
3271;SDS011;1648;50.022;8.424;2023-07-08T20:39:33;8.67;;;4.70;;
3271;SDS011;1648;50.022;8.424;2023-07-08T20:54:36;5.47;;;3.53;;
3271;SDS011;1648;50.022;8.424;2023-07-08T21:09:39;7.03;;;3.37;;
3271;SDS011;1648;50.022;8.424;2023-07-08T21:24:42;6.83;;;4.30;;
3271;SDS011;1648;50.022;8.424;2023-07-08T21:39:45;4.50;;;3.27;;
3271;SDS011;1648;50.022;8.424;2023-07-08T21:54:48;8.40;;;4.70;;
3271;SDS011;1648;50.022;8.424;2023-07-08T22:09:52;7.53;;;3.50;;
3271;SDS011;1648;50.022;8.424;2023-07-08T22:24:55;5.37;;;4.23;;
3271;SDS011;1648;50.022;8.424;2023-07-08T22:39:58;7.63;;;4.30;;
3271;SDS011;1648;50.022;8.424;2023-07-08T22:55:01;11.50;;;4.00;;
3271;SDS011;1648;50.022;8.424;2023-07-08T23:10:06;4.93;;;3.43;;
3271;SDS011;1648;50.022;8.424;2023-07-08T23:25:12;7.10;;;5.00;;
3271;SDS011;1648;50.022;8.424;2023-07-08T23:40:16;8.37;;;4.83;;
3271;SDS011;1648;50.022;8.424;2023-07-08T23:55:19;11.33;;;5.50;;
